메인 페이지
METAR-TAF:

METAR-TAF

공항 :

미니애폴리스 세인트폴 국제공항

미니애폴리스, 미네소타, 미국

위도: 44-52-59N, 경도: 093-13-44W, 고도: 256m

현재 날씨관측

예보는 37분 전, 16:53시(UTC)에 발표되었습니다.
북서11kt
온도 -10°C
습도 72%
기압 1013 hPa
시정: 8.0km
고도 1600ft 상공 흐림
약한눈

METAR: KMSP 141653Z 32011KT 5SM -SN OVC016 M10/M14 A2992 RMK AO2 SLP146 P0000 T11001139

시각: 11:30 (17:30 UTC)

예보

예보는 3 시간 14분 전, 14:16시(UTC)에 발표되었습니다.
예보 대상 시간: 14일 14시부터 15일 18시까지 (UTC)
북서11kt
시정: 9.7km
고도 1500ft 상공 흐림
약한소낙눈
14일 1700시부터 (UTC)
북서9kt
시정: 10km
고도 2000ft 상공 구름 보통
15일 0300시부터 (UTC)
북서4kt
시정: 10km
맑음

TAF: KMSP 141416Z 1414/1518 31011KT 6SM -SHSN OVC015 FM141700 31009KT P6SM SCT020 FM150300 31004KT P6SM SKC

4,000개 이상의 공항 관측 자료 및 예보 (METAR 및 TAF 보고).

지도상에서 검색 가능한 기상관측소가 노란 점과 빨간 점으로 표시되어 있습니다.

기상관측소 명을 보려면 표시 위로 마우스를 이동하세요.

날씨 관측과 예보를 보려면 클릭하세요.

지도 변경 : 확대하려면 엑스 표시가 있는 녹색 버튼, 축소하려면 빼기 표시가 있는 녹색 버튼, 다음 페이지의 지도를 보려면 녹색 화살표를 클릭하세요.


METAR-TAF: